Time,TemperatureF,DewpointF,PressureIn,WindDirection,WindDirectionDegrees,WindSpeedMPH,WindSpeedGustMPH,Humidity,HourlyPrecipIn,Conditions,Clouds,dailyrainin,SoftwareType,DateUTC
2013-10-04 00:00:00,69.0,-99.9,-100.00,SE,139,8.0,9.0,-999,0.00,,,0.38,,2013-10-04 05:00:00,
2013-10-04 00:51:00,69.0,-99.9,-100.00,SE,139,8.0,9.0,-999,0.00,,,0.38,,2013-10-04 05:51:00,
2013-10-04 01:00:00,71.0,-99.9,-100.00,SSE,164,8.0,11.0,-999,0.00,,,0.38,,2013-10-04 06:00:00,
2013-10-04 01:21:00,70.0,-99.9,-100.00,South,172,4.0,6.0,-999,0.00,,,0.38,,2013-10-04 06:21:00,
2013-10-04 01:29:00,70.0,-99.9,-100.00,South,172,4.0,6.0,-999,0.00,,,0.38,,2013-10-04 06:29:00,
2013-10-04 01:30:00,71.0,-99.9,-100.00,South,170,8.0,12.0,-999,0.00,,,0.38,,2013-10-04 06:30:00,
2013-10-04 01:50:00,71.0,-99.9,-100.00,SSE,164,8.0,11.0,-999,0.00,,,0.38,,2013-10-04 06:50:00,
2013-10-04 02:00:00,71.0,-99.9,-100.00,SSE,165,7.0,9.0,-999,0.00,,,0.38,,2013-10-04 07:00:00,
2013-10-04 02:20:00,71.0,-99.9,-100.00,South,170,8.0,12.0,-999,0.00,,,0.38,,2013-10-04 07:20:00,
2013-10-04 02:50:00,71.0,-99.9,-100.00,SSE,165,7.0,9.0,-999,0.00,,,0.38,,2013-10-04 07:50:00,
2013-10-04 03:00:00,71.0,-99.9,-100.00,SSE,159,9.0,15.0,-999,0.00,,,0.38,,2013-10-04 08:00:00,
2013-10-04 03:20:00,71.0,-99.9,-100.00,SSE,163,8.0,10.0,-999,0.00,,,0.38,,2013-10-04 08:20:00,
2013-10-04 03:29:00,71.0,-99.9,-100.00,SSE,163,8.0,10.0,-999,0.00,,,0.38,,2013-10-04 08:29:00,
2013-10-04 03:50:00,71.0,-99.9,-100.00,SSE,159,9.0,15.0,-999,0.00,,,0.38,,2013-10-04 08:50:00,
2013-10-04 04:00:00,70.0,-99.9,-100.00,SSE,160,8.0,12.0,-999,0.00,,,0.38,,2013-10-04 09:00:00,
2013-10-04 04:19:00,71.0,-99.9,-100.00,SSE,164,9.0,13.0,-999,0.00,,,0.38,,2013-10-04 09:19:00,
2013-10-04 04:29:00,71.0,-99.9,-100.00,SSE,164,9.0,13.0,-999,0.00,,,0.38,,2013-10-04 09:29:00,
2013-10-04 04:30:00,70.0,-99.9,-100.00,SSE,157,8.0,10.0,-999,0.00,,,0.38,,2013-10-04 09:30:00,
2013-10-04 04:52:00,70.0,-99.9,-100.00,SSE,160,8.0,12.0,-999,0.00,,,0.38,,2013-10-04 09:52:00,
2013-10-04 05:00:00,70.0,-99.9,-100.00,SSE,155,7.0,10.0,-999,0.00,,,0.38,,2013-10-04 10:00:00,
2013-10-04 05:23:00,70.0,-99.9,-100.00,SSE,157,8.0,10.0,-999,0.00,,,0.38,,2013-10-04 10:23:00,
2013-10-04 05:30:00,70.0,-99.9,-100.00,SSE,167,4.0,7.0,-999,0.00,,,0.38,,2013-10-04 10:30:00,
2013-10-04 05:53:00,70.0,-99.9,-100.00,SSE,155,7.0,10.0,-999,0.00,,,0.38,,2013-10-04 10:53:00,
2013-10-04 06:00:00,70.0,-99.9,-100.00,SSE,163,4.0,6.0,-999,0.00,,,0.38,,2013-10-04 11:00:00,
2013-10-04 06:23:00,70.0,-99.9,-100.00,SSE,167,4.0,7.0,-999,0.00,,,0.38,,2013-10-04 11:23:00,
2013-10-04 06:30:00,70.0,-99.9,-100.00,SSE,163,5.0,7.0,-999,0.00,,,0.38,,2013-10-04 11:30:00,
2013-10-04 06:52:00,70.0,-99.9,-100.00,SSE,163,4.0,6.0,-999,0.00,,,0.38,,2013-10-04 11:52:00,
2013-10-04 07:00:00,70.0,-99.9,-100.00,SSE,166,6.0,8.0,-999,0.00,,,0.38,,2013-10-04 12:00:00,
2013-10-04 07:23:00,70.0,-99.9,-100.00,SSE,163,5.0,7.0,-999,0.00,,,0.38,,2013-10-04 12:23:00,
2013-10-04 07:30:00,70.0,-99.9,-100.00,SSE,159,8.0,10.0,-999,0.00,,,0.38,,2013-10-04 12:30:00,
2013-10-04 07:52:00,70.0,-99.9,-100.00,SSE,166,6.0,8.0,-999,0.00,,,0.38,,2013-10-04 12:52:00,
2013-10-04 08:00:00,70.0,-99.9,-100.00,SSE,158,8.0,10.0,-999,0.00,,,0.38,,2013-10-04 13:00:00,
2013-10-04 08:22:00,70.0,-99.9,-100.00,SSE,159,8.0,10.0,-999,0.00,,,0.38,,2013-10-04 13:22:00,
2013-10-04 08:30:00,71.0,-99.9,-100.00,SSE,151,8.0,10.0,-999,0.00,,,0.38,,2013-10-04 13:30:00,
2013-10-04 08:52:00,70.0,-99.9,-100.00,SSE,158,8.0,10.0,-999,0.00,,,0.38,,2013-10-04 13:52:00,
2013-10-04 09:00:00,72.0,-99.9,-100.00,SE,146,9.0,11.0,-999,0.00,,,0.38,,2013-10-04 14:00:00,
2013-10-04 09:23:00,71.0,-99.9,-100.00,SSE,151,8.0,10.0,-999,0.00,,,0.38,,2013-10-04 14:23:00,
2013-10-04 09:30:00,74.0,-99.9,-100.00,SSE,162,9.0,12.0,-999,0.00,,,0.38,,2013-10-04 14:30:00,
2013-10-04 09:53:00,72.0,-99.9,-100.00,SE,146,9.0,11.0,-999,0.00,,,0.38,,2013-10-04 14:53:00,
2013-10-04 10:00:00,77.0,-99.9,-100.00,SSE,168,8.0,11.0,-999,0.00,,,0.34,,2013-10-04 15:00:00,
2013-10-04 10:23:00,74.0,-99.9,-100.00,SSE,162,9.0,12.0,-999,0.00,,,0.38,,2013-10-04 15:23:00,
2013-10-04 10:30:00,78.0,-99.9,-100.00,South,174,10.0,15.0,-999,0.00,,,0.33,,2013-10-04 15:30:00,
2013-10-04 10:53:00,77.0,-99.9,-100.00,SSE,168,8.0,11.0,-999,0.00,,,0.34,,2013-10-04 15:53:00,
2013-10-04 11:00:00,80.0,-99.9,-100.00,SSE,168,7.0,11.0,-999,0.00,,,0.31,,2013-10-04 16:00:00,
2013-10-04 11:23:00,78.0,-99.9,-100.00,South,174,10.0,15.0,-999,0.00,,,0.33,,2013-10-04 16:23:00,
2013-10-04 11:30:00,81.0,-99.9,-100.00,SSE,157,10.0,18.0,-999,0.00,,,0.31,,2013-10-04 16:30:00,
2013-10-04 11:53:00,80.0,-99.9,-100.00,SSE,168,7.0,11.0,-999,0.00,,,0.31,,2013-10-04 16:53:00,
2013-10-04 12:00:00,81.0,-99.9,-100.00,South,172,5.0,8.0,-999,0.00,,,0.31,,2013-10-04 17:00:00,
2013-10-04 12:24:00,81.0,-99.9,-100.00,SSE,157,10.0,18.0,-999,0.00,,,0.31,,2013-10-04 17:24:00,
2013-10-04 12:30:00,82.0,-99.9,-100.00,SSE,154,6.0,9.0,-999,0.00,,,0.31,,2013-10-04 17:30:00,
2013-10-04 13:27:00,82.0,-99.9,-100.00,SSE,154,6.0,9.0,-999,0.00,,,0.31,,2013-10-04 18:27:00,
2013-10-04 13:55:00,83.0,-99.9,-100.00,SSE,154,7.0,10.0,-999,0.00,,,0.31,,2013-10-04 18:55:00,
2013-10-04 14:12:00,80.0,-99.9,-100.00,SE,138,7.0,9.0,-999,0.00,,,0.31,,2013-10-04 19:12:00,
2013-10-04 14:22:00,80.0,-99.9,-100.00,SE,138,7.0,9.0,-999,0.00,,,0.31,,2013-10-04 19:22:00,
2013-10-04 14:43:00,82.0,-99.9,-100.00,SE,139,8.0,12.0,-999,0.00,,,0.27,,2013-10-04 19:43:00,
2013-10-04 14:53:00,82.0,-99.9,-100.00,SE,139,8.0,12.0,-999,0.00,,,0.27,,2013-10-04 19:53:00,
2013-10-04 15:11:00,84.0,-99.9,-100.00,SE,131,10.0,12.0,-999,0.00,,,0.01,,2013-10-04 20:11:00,
2013-10-04 15:22:00,84.0,-99.9,-100.00,SE,131,10.0,12.0,-999,0.00,,,0.01,,2013-10-04 20:22:00,
2013-10-04 15:30:00,82.0,-99.9,-100.00,SE,146,11.0,13.0,-999,0.00,,,0.01,,2013-10-04 20:30:00,
2013-10-04 15:43:00,84.0,-99.9,-100.00,SE,140,11.0,13.0,-999,0.00,,,0.01,,2013-10-04 20:43:00,
2013-10-04 15:53:00,84.0,-99.9,-100.00,SE,140,11.0,13.0,-999,0.00,,,0.01,,2013-10-04 20:53:00,
2013-10-04 16:12:00,82.0,-99.9,-100.00,SE,146,11.0,13.0,-999,0.00,,,0.01,,2013-10-04 21:12:00,
2013-10-04 16:22:00,82.0,-99.9,-100.00,SE,146,11.0,13.0,-999,0.00,,,0.01,,2013-10-04 21:22:00,
2013-10-04 17:12:00,85.0,-99.9,-100.00,SE,130,11.0,13.0,-999,0.00,,,0.00,,2013-10-04 22:12:00,
2013-10-04 17:23:00,85.0,-99.9,-100.00,SE,130,11.0,13.0,-999,0.00,,,0.00,,2013-10-04 22:23:00,
2013-10-04 17:43:00,84.0,-99.9,-100.00,SE,137,10.0,12.0,-999,0.00,,,0.00,,2013-10-04 22:43:00,
2013-10-04 17:53:00,84.0,-99.9,-100.00,SE,137,10.0,12.0,-999,0.00,,,0.00,,2013-10-04 22:53:00,
2013-10-04 18:12:00,84.0,-99.9,-100.00,SE,139,12.0,14.0,-999,0.00,,,0.00,,2013-10-04 23:12:00,
2013-10-04 18:22:00,84.0,-99.9,-100.00,SE,139,12.0,14.0,-999,0.00,,,0.00,,2013-10-04 23:22:00,
2013-10-04 18:42:00,84.0,-99.9,-100.00,SE,131,11.0,12.0,-999,0.00,,,0.00,,2013-10-04 23:42:00,
2013-10-04 18:53:00,84.0,-99.9,-100.00,SE,131,11.0,12.0,-999,0.00,,,0.00,,2013-10-04 23:53:00,
2013-10-04 19:13:00,81.0,-99.9,-100.00,SSE,153,7.0,7.0,-999,0.00,,,0.00,,2013-10-05 00:13:00,
2013-10-04 19:23:00,81.0,-99.9,-100.00,SSE,153,7.0,7.0,-999,0.00,,,0.00,,2013-10-05 00:23:00,
2013-10-04 19:42:00,80.0,-99.9,-100.00,SSE,151,5.0,6.0,-999,0.00,,,0.00,,2013-10-05 00:42:00,
2013-10-04 19:53:00,80.0,-99.9,-100.00,SSE,151,5.0,6.0,-999,0.00,,,0.00,,2013-10-05 00:53:00,
2013-10-04 20:12:00,78.0,-99.9,-100.00,SE,142,5.0,6.0,-999,0.00,,,0.00,,2013-10-05 01:12:00,
2013-10-04 20:22:00,78.0,-99.9,-100.00,SE,142,5.0,6.0,-999,0.00,,,0.00,,2013-10-05 01:22:00,
2013-10-04 20:43:00,77.0,-99.9,-100.00,SSE,154,7.0,8.0,-999,0.00,,,0.00,,2013-10-05 01:43:00,
2013-10-04 20:52:00,77.0,-99.9,-100.00,SSE,154,7.0,8.0,-999,0.00,,,0.00,,2013-10-05 01:52:00,
2013-10-04 21:11:00,78.0,-99.9,-100.00,SSE,157,7.0,8.0,-999,0.00,,,0.00,,2013-10-05 02:11:00,
2013-10-04 21:22:00,78.0,-99.9,-100.00,SSE,157,7.0,8.0,-999,0.00,,,0.00,,2013-10-05 02:22:00,
2013-10-04 21:42:00,77.0,-99.9,-100.00,SSE,160,9.0,10.0,-999,0.00,,,0.00,,2013-10-05 02:42:00,
2013-10-04 21:52:00,77.0,-99.9,-100.00,SSE,160,9.0,10.0,-999,0.00,,,0.00,,2013-10-05 02:52:00,
2013-10-04 22:12:00,78.0,-99.9,-100.00,SSE,158,8.0,9.0,-999,0.00,,,-99.99,,2013-10-05 03:12:00,
2013-10-04 22:23:00,78.0,-99.9,-100.00,SSE,158,8.0,9.0,-999,0.00,,,-99.99,,2013-10-05 03:23:00,
2013-10-04 22:45:00,77.0,-99.9,-100.00,SSE,157,9.0,10.0,-999,0.00,,,0.00,,2013-10-05 03:45:00,
2013-10-04 22:55:00,77.0,-99.9,-100.00,SSE,157,9.0,10.0,-999,0.00,,,0.00,,2013-10-05 03:55:00,
2013-10-04 23:14:00,75.0,-99.9,-100.00,SSE,156,7.0,8.0,-999,0.00,,,0.00,,2013-10-05 04:14:00,
2013-10-04 23:24:00,75.0,-99.9,-100.00,SSE,156,7.0,8.0,-999,0.00,,,0.00,,2013-10-05 04:24:00,
2013-10-04 23:44:00,75.0,-99.9,-100.00,SSE,154,6.0,7.0,-999,0.00,,,0.00,,2013-10-05 04:44:00,
2013-10-04 23:54:00,75.0,-99.9,-100.00,SSE,154,6.0,7.0,-999,0.00,,,0.00,,2013-10-05 04:54:00,